Time;durP1;ratioP1;P1;durP2;ratioP2;P2;SDS_P1;SDS_P2;PMS_P1;PMS_P2;Temp;Humidity;BMP_temperature;BMP_pressure;BME280_temperature;BME280_humidity;BME280_pressure;Samples;Min_cycle;Max_cycle;Signal;HPM_P1;HPM_P2
2023/08/31 00:00:04;;;;;;;3.10;1.93;;;13.70;99.90;;;;;;5049863;28;20482;-66
2023/08/31 00:02:31;;;;;;;1.50;1.40;;;13.70;99.90;;;;;;5049570;28;20456;-67
2023/08/31 00:04:58;;;;;;;4.53;1.77;;;13.70;99.90;;;;;;5049932;28;20483;-67
2023/08/31 00:07:25;;;;;;;2.97;1.53;;;13.70;99.90;;;;;;5049644;28;20461;-67
2023/08/31 00:09:53;;;;;;;2.20;1.80;;;13.60;99.90;;;;;;5049657;28;20569;-67
2023/08/31 00:12:22;;;;;;;1.73;1.63;;;13.60;99.90;;;;;;5049451;28;20848;-67
2023/08/31 00:14:50;;;;;;;2.40;1.97;;;13.60;99.90;;;;;;5049757;28;20459;-67
2023/08/31 00:17:17;;;;;;;4.40;1.90;;;13.60;99.90;;;;;;5049528;28;20976;-67
2023/08/31 00:19:44;;;;;;;1.97;1.50;;;13.60;99.90;;;;;;5049610;28;20925;-67
2023/08/31 00:22:11;;;;;;;1.90;1.57;;;13.60;99.90;;;;;;5050589;28;20465;-67
2023/08/31 00:24:37;;;;;;;1.93;1.73;;;13.50;99.90;;;;;;5053224;28;20478;-67
2023/08/31 00:27:06;;;;;;;3.83;1.93;;;13.50;99.90;;;;;;5053707;28;20466;-67
2023/08/31 00:29:33;;;;;;;1.80;1.43;;;13.50;99.90;;;;;;5052968;28;20531;-67
2023/08/31 00:32:00;;;;;;;2.77;1.90;;;13.40;99.90;;;;;;5053219;28;20453;-67
2023/08/31 00:34:27;;;;;;;2.70;1.53;;;13.40;99.90;;;;;;5053202;28;20461;-67
2023/08/31 00:36:53;;;;;;;2.07;1.70;;;13.40;99.90;;;;;;5053644;28;20469;-67
2023/08/31 00:39:21;;;;;;;2.20;2.03;;;13.40;99.90;;;;;;5052963;28;20484;-67
2023/08/31 00:41:48;;;;;;;1.90;1.73;;;13.40;99.90;;;;;;5053081;28;20515;-66
2023/08/31 00:44:16;;;;;;;2.37;2.17;;;13.40;99.90;;;;;;5053268;28;20453;-67
2023/08/31 00:46:43;;;;;;;2.47;1.80;;;13.40;99.90;;;;;;5052896;28;20468;-67
2023/08/31 00:49:10;;;;;;;1.63;1.50;;;13.40;99.90;;;;;;5052997;28;20916;-67
2023/08/31 00:51:37;;;;;;;2.10;1.67;;;13.40;99.90;;;;;;5052590;28;20982;-67
2023/08/31 00:54:05;;;;;;;2.10;1.67;;;13.40;99.90;;;;;;5053036;28;20973;-67
2023/08/31 00:56:32;;;;;;;1.70;1.60;;;13.40;99.90;;;;;;5052841;28;20487;-68
2023/08/31 00:58:59;;;;;;;2.20;1.60;;;13.30;99.90;;;;;;5052939;28;20480;-66
2023/08/31 01:01:35;;;;;;;1.77;1.67;;;13.30;99.90;;;;;;5052387;28;20550;-67
2023/08/31 01:04:17;;;;;;;1.70;1.60;;;13.30;99.90;;;;;;5052988;28;20451;-67
2023/08/31 01:06:55;;;;;;;2.07;1.70;;;13.30;99.90;;;;;;5052657;28;20461;-67
2023/08/31 01:09:31;;;;;;;2.40;1.90;;;13.20;99.90;;;;;;5052515;28;20470;-67
2023/08/31 01:12:03;;;;;;;1.70;1.57;;;13.20;99.90;;;;;;5052592;28;20485;-67
2023/08/31 01:14:34;;;;;;;2.13;1.92;;;13.20;99.90;;;;;;5052406;28;20450;-67
2023/08/31 01:17:04;;;;;;;1.67;1.57;;;13.10;99.90;;;;;;5052776;28;20623;-67
2023/08/31 01:19:46;;;;;;;2.10;1.60;;;13.10;99.90;;;;;;5052182;28;20917;-67
2023/08/31 01:22:18;;;;;;;2.07;1.60;;;13.00;99.90;;;;;;5052510;28;20462;-67
2023/08/31 01:24:47;;;;;;;1.57;1.40;;;13.00;99.90;;;;;;5052128;28;20486;-67
2023/08/31 01:27:14;;;;;;;3.45;1.75;;;12.90;99.90;;;;;;5052644;28;20457;-67
2023/08/31 01:29:40;;;;;;;2.93;1.80;;;12.90;99.90;;;;;;5051842;28;20325;-67
2023/08/31 01:32:08;;;;;;;2.23;1.87;;;12.80;99.90;;;;;;5052211;28;20465;-67
2023/08/31 01:34:35;;;;;;;2.22;1.77;;;12.80;99.90;;;;;;5051674;28;20458;-67
2023/08/31 01:37:08;;;;;;;1.63;1.50;;;12.70;99.90;;;;;;5052530;28;20204;-67
2023/08/31 01:39:41;;;;;;;2.30;2.10;;;12.70;99.90;;;;;;5051735;28;21214;-67
2023/08/31 01:42:13;;;;;;;2.03;1.80;;;12.70;99.90;;;;;;5052148;28;20211;-67
2023/08/31 01:44:40;;;;;;;2.20;1.67;;;12.70;99.90;;;;;;5051674;28;20522;-67
2023/08/31 01:47:08;;;;;;;3.00;1.92;;;12.70;99.90;;;;;;5052174;28;20458;-66
2023/08/31 01:49:38;;;;;;;3.05;1.50;;;12.70;99.90;;;;;;5051544;28;20230;-66
2023/08/31 01:52:06;;;;;;;1.73;1.63;;;12.60;99.90;;;;;;5051872;28;20202;-67
2023/08/31 01:54:33;;;;;;;2.17;1.53;;;12.60;99.90;;;;;;5051664;28;20457;-67
2023/08/31 01:57:00;;;;;;;2.90;1.97;;;12.60;99.90;;;;;;5051978;28;20468;-67
2023/08/31 01:59:28;;;;;;;2.75;2.20;;;12.60;99.90;;;;;;5051394;28;20477;-67
2023/08/31 02:01:55;;;;;;;1.43;1.33;;;12.60;99.90;;;;;;5051506;28;20203;-67
2023/08/31 02:04:22;;;;;;;2.30;1.73;;;12.60;99.90;;;;;;5051874;28;20463;-67
2023/08/31 02:06:48;;;;;;;1.58;1.48;;;12.60;99.90;;;;;;5051502;28;20210;-67
2023/08/31 02:09:15;;;;;;;1.70;1.60;;;12.60;99.90;;;;;;5051433;28;20229;-67
2023/08/31 02:11:42;;;;;;;1.80;1.70;;;12.60;99.90;;;;;;5051176;28;20203;-67
2023/08/31 02:14:08;;;;;;;2.60;1.70;;;12.60;99.90;;;;;;5051633;28;20218;-67
2023/08/31 02:16:36;;;;;;;1.67;1.57;;;12.60;99.90;;;;;;5051201;28;20713;-67
2023/08/31 02:19:03;;;;;;;2.17;1.50;;;12.60;99.90;;;;;;5051379;28;20483;-67
2023/08/31 02:21:30;;;;;;;1.77;1.47;;;12.60;99.90;;;;;;5121274;22;20233;-65
2023/08/31 02:23:57;;;;;;;1.80;1.70;;;12.60;99.90;;;;;;5051064;28;20834;-65
2023/08/31 02:26:23;;;;;;;1.77;1.40;;;12.60;99.90;;;;;;5051167;28;20219;-65
2023/08/31 02:28:50;;;;;;;1.60;1.50;;;12.60;99.90;;;;;;5050384;28;20215;-65
2023/08/31 02:31:18;;;;;;;1.95;1.55;;;12.60;99.90;;;;;;5050804;28;20226;-64
2023/08/31 02:33:46;;;;;;;2.40;2.10;;;12.50;99.90;;;;;;5050575;28;20700;-64
2023/08/31 02:36:13;;;;;;;3.07;1.73;;;12.60;99.90;;;;;;5051204;28;20923;-64
2023/08/31 02:38:40;;;;;;;1.95;1.60;;;12.60;99.90;;;;;;5050480;28;20463;-64
2023/08/31 02:41:07;;;;;;;3.10;2.08;;;12.60;99.90;;;;;;5050867;28;20205;-64
2023/08/31 02:43:33;;;;;;;1.70;1.60;;;12.50;99.90;;;;;;5050154;28;20581;-67
2023/08/31 02:46:01;;;;;;;3.10;1.63;;;12.50;99.90;;;;;;5049878;28;20492;-67
2023/08/31 02:48:29;;;;;;;2.00;1.80;;;12.50;99.90;;;;;;5050706;28;20511;-67
2023/08/31 02:50:57;;;;;;;2.00;1.80;;;12.60;99.90;;;;;;5050909;28;20821;-67
2023/08/31 02:53:24;;;;;;;3.13;1.83;;;12.60;99.90;;;;;;5050419;28;20580;-65
2023/08/31 02:55:51;;;;;;;2.33;1.97;;;12.50;99.90;;;;;;5050326;28;20779;-64
2023/08/31 02:58:19;;;;;;;3.75;1.75;;;12.50;99.90;;;;;;5050621;28;20514;-64
2023/08/31 03:00:48;;;;;;;2.38;2.00;;;12.60;99.90;;;;;;5050180;28;20303;-65
2023/08/31 03:03:14;;;;;;;2.05;1.67;;;12.60;99.90;;;;;;5050280;28;20240;-65
2023/08/31 03:05:41;;;;;;;2.22;1.88;;;12.60;99.90;;;;;;5050523;28;20699;-65
2023/08/31 03:08:09;;;;;;;2.30;1.87;;;12.60;99.90;;;;;;5050698;28;20203;-64
2023/08/31 03:10:36;;;;;;;1.97;1.77;;;12.60;99.90;;;;;;5050564;28;20485;-64
2023/08/31 03:13:03;;;;;;;2.78;2.00;;;12.60;99.90;;;;;;5050264;28;20462;-64
2023/08/31 03:15:30;;;;;;;2.63;2.23;;;12.60;99.90;;;;;;5050824;28;20200;-65
2023/08/31 03:17:57;;;;;;;3.27;1.70;;;12.60;99.90;;;;;;5050292;28;20461;-65
2023/08/31 03:20:23;;;;;;;2.17;1.88;;;12.60;99.90;;;;;;5050699;28;20861;-65
2023/08/31 03:22:50;;;;;;;2.43;2.23;;;12.50;99.90;;;;;;5050220;28;20874;-69
2023/08/31 03:25:18;;;;;;;2.30;2.00;;;12.50;99.90;;;;;;5050394;28;20485;-64
2023/08/31 03:27:45;;;;;;;4.03;2.17;;;12.50;99.90;;;;;;5049931;28;21075;-64
2023/08/31 03:30:12;;;;;;;1.88;1.73;;;12.40;99.90;;;;;;5050117;28;20221;-64
2023/08/31 03:32:39;;;;;;;3.20;2.37;;;12.40;99.90;;;;;;5030091;28;20207;-63
2023/08/31 03:35:07;;;;;;;2.15;1.95;;;12.40;99.90;;;;;;5029166;28;20467;-64
2023/08/31 03:37:34;;;;;;;2.20;1.60;;;12.40;99.90;;;;;;5027892;28;20199;-64
2023/08/31 03:40:01;;;;;;;2.05;1.95;;;12.40;99.90;;;;;;5028408;28;20219;-64
2023/08/31 03:42:29;;;;;;;2.87;2.30;;;12.40;99.90;;;;;;5025667;28;20206;-64
2023/08/31 03:44:56;;;;;;;1.97;1.77;;;12.40;99.90;;;;;;5029422;28;20843;-63
2023/08/31 03:47:22;;;;;;;2.85;1.60;;;12.40;99.90;;;;;;5026577;28;20834;-64
2023/08/31 03:49:49;;;;;;;2.30;1.92;;;12.40;99.90;;;;;;5021633;28;20232;-67
2023/08/31 03:52:16;;;;;;;3.33;1.70;;;12.40;99.90;;;;;;5024369;28;20199;-64
2023/08/31 03:54:43;;;;;;;3.03;2.23;;;12.40;99.90;;;;;;5029574;28;20204;-64
2023/08/31 03:57:09;;;;;;;4.03;2.22;;;12.40;99.90;;;;;;5031225;28;20465;-66
2023/08/31 03:59:37;;;;;;;2.10;1.90;;;12.40;99.90;;;;;;5029332;28;20228;-67
2023/08/31 04:02:04;;;;;;;2.33;1.87;;;12.30;99.90;;;;;;5030385;28;20457;-65
2023/08/31 04:04:32;;;;;;;3.30;2.10;;;12.40;99.90;;;;;;5029038;28;20463;-63
2023/08/31 04:06:58;;;;;;;3.07;2.50;;;12.30;99.90;;;;;;5033058;28;21009;-63
2023/08/31 04:09:25;;;;;;;2.45;2.25;;;12.40;99.90;;;;;;5029403;28;20489;-66
2023/08/31 04:11:52;;;;;;;2.65;2.10;;;12.40;99.90;;;;;;5033666;28;20208;-67
2023/08/31 04:14:19;;;;;;;2.65;1.85;;;12.40;99.90;;;;;;5030237;28;20199;-67
2023/08/31 04:16:49;;;;;;;2.80;2.05;;;12.30;99.90;;;;;;5031031;28;20196;-66
2023/08/31 04:19:16;;;;;;;3.78;2.33;;;12.30;99.90;;;;;;5029274;28;20293;-64
2023/08/31 04:21:43;;;;;;;2.30;2.10;;;12.30;99.90;;;;;;5029576;28;20212;-64
2023/08/31 04:24:10;;;;;;;1.70;1.60;;;12.30;99.90;;;;;;5031692;28;20207;-64
2023/08/31 04:26:37;;;;;;;3.97;2.00;;;12.30;99.90;;;;;;5028610;28;20549;-64
2023/08/31 04:29:05;;;;;;;2.33;1.90;;;12.30;99.90;;;;;;5032029;28;20485;-64
2023/08/31 04:31:32;;;;;;;3.15;2.25;;;12.30;99.90;;;;;;5023575;28;20262;-65
2023/08/31 04:34:00;;;;;;;1.70;1.60;;;12.20;99.90;;;;;;5049109;28;20202;-64
2023/08/31 04:36:27;;;;;;;5.07;1.63;;;12.20;99.90;;;;;;5051253;28;20456;-64
2023/08/31 04:38:53;;;;;;;2.20;1.95;;;12.20;99.90;;;;;;5051075;28;20250;-64
2023/08/31 04:41:20;;;;;;;2.78;2.28;;;12.20;99.90;;;;;;5047013;28;20294;-65
2023/08/31 04:43:48;;;;;;;1.88;1.60;;;12.10;99.90;;;;;;5051246;28;20202;-63
2023/08/31 04:46:15;;;;;;;3.28;2.00;;;12.10;99.90;;;;;;5052255;28;20218;-64
2023/08/31 04:48:42;;;;;;;2.92;1.73;;;12.00;99.90;;;;;;5052927;28;20203;-63
2023/08/31 04:51:28;;;;;;;2.10;1.90;;;12.00;99.90;;;;;;5054252;28;20297;-64
2023/08/31 04:53:55;;;;;;;2.10;1.90;;;12.00;99.90;;;;;;5053629;28;20206;-65
2023/08/31 04:56:22;;;;;;;2.30;2.10;;;12.00;99.90;;;;;;5053722;28;20212;-64
2023/08/31 04:58:48;;;;;;;2.38;2.17;;;12.00;99.90;;;;;;5053344;28;20225;-64
2023/08/31 05:01:15;;;;;;;1.70;1.60;;;12.00;99.90;;;;;;5053418;28;20207;-65
2023/08/31 05:03:42;;;;;;;2.25;2.05;;;12.00;99.90;;;;;;5053698;28;20668;-64
2023/08/31 05:06:10;;;;;;;2.30;2.10;;;12.00;99.90;;;;;;5053806;28;20222;-64
2023/08/31 05:08:38;;;;;;;1.95;1.85;;;12.00;99.90;;;;;;5052717;28;20200;-64
2023/08/31 05:11:05;;;;;;;3.93;2.43;;;11.90;99.90;;;;;;5053306;28;20203;-64
2023/08/31 05:13:31;;;;;;;2.42;2.22;;;11.90;99.90;;;;;;5052791;28;20952;-64
2023/08/31 05:15:58;;;;;;;2.75;2.08;;;11.90;99.90;;;;;;5052786;28;20204;-64
2023/08/31 05:18:25;;;;;;;1.95;1.85;;;12.00;99.90;;;;;;5052871;28;20693;-63
2023/08/31 05:20:51;;;;;;;3.58;2.20;;;12.00;99.90;;;;;;5052617;28;20213;-63
2023/08/31 05:23:20;;;;;;;2.75;1.92;;;12.00;99.90;;;;;;5052559;28;20665;-65
2023/08/31 05:25:47;;;;;;;2.95;2.00;;;12.00;99.90;;;;;;5052508;28;20225;-64
2023/08/31 05:28:13;;;;;;;2.40;2.20;;;12.00;99.90;;;;;;5052521;28;20240;-64
2023/08/31 05:30:48;;;;;;;2.20;1.80;;;12.10;99.90;;;;;;5052540;28;20217;-64
2023/08/31 05:33:15;;;;;;;2.42;2.08;;;12.00;99.90;;;;;;5052446;28;20201;-64
2023/08/31 05:35:42;;;;;;;2.45;1.85;;;12.10;99.90;;;;;;5052966;28;20201;-63
2023/08/31 05:38:09;;;;;;;2.20;2.00;;;12.10;99.90;;;;;;5052203;28;20201;-64
2023/08/31 05:40:37;;;;;;;3.80;2.28;;;12.20;99.90;;;;;;5052826;28;20224;-64
2023/08/31 05:43:04;;;;;;;2.13;1.70;;;12.20;99.90;;;;;;5052301;28;20205;-64
2023/08/31 05:45:33;;;;;;;5.70;2.35;;;12.20;99.90;;;;;;5052851;28;20212;-64
2023/08/31 05:48:00;;;;;;;1.80;1.70;;;12.30;99.90;;;;;;5052475;28;20202;-64
2023/08/31 05:50:27;;;;;;;2.10;1.90;;;12.30;99.90;;;;;;5052842;28;20245;-63
2023/08/31 05:52:54;;;;;;;2.35;2.15;;;12.30;99.90;;;;;;5052318;28;20202;-64
2023/08/31 05:55:21;;;;;;;2.53;1.95;;;12.30;99.90;;;;;;5052837;28;20549;-64
2023/08/31 05:57:49;;;;;;;3.20;2.50;;;12.40;99.90;;;;;;5052858;28;20194;-64
2023/08/31 06:00:17;;;;;;;1.70;1.60;;;12.40;99.90;;;;;;5037514;28;20225;-64
2023/08/31 06:02:44;;;;;;;2.97;2.10;;;12.40;99.90;;;;;;5052410;28;20237;-64
2023/08/31 06:05:13;;;;;;;2.05;1.90;;;12.50;99.90;;;;;;5052084;28;20253;-65
2023/08/31 06:07:40;;;;;;;2.63;2.28;;;12.50;99.90;;;;;;5051885;28;20219;-64
2023/08/31 06:10:07;;;;;;;2.88;2.60;;;12.50;99.90;;;;;;5051533;28;20229;-64
2023/08/31 06:12:34;;;;;;;7.25;2.67;;;12.60;99.90;;;;;;5051679;28;20206;-64
2023/08/31 06:15:02;;;;;;;2.50;2.00;;;12.60;99.90;;;;;;5051568;28;20828;-64
2023/08/31 06:17:29;;;;;;;2.60;2.40;;;12.70;99.90;;;;;;5052218;28;20249;-64
2023/08/31 06:19:56;;;;;;;5.25;2.40;;;12.70;99.90;;;;;;5050439;28;20226;-64
2023/08/31 06:22:24;;;;;;;4.03;2.00;;;12.70;99.90;;;;;;5051526;28;20202;-64
2023/08/31 06:24:51;;;;;;;2.97;2.77;;;12.70;99.90;;;;;;5051623;28;20899;-64
2023/08/31 06:27:18;;;;;;;2.90;2.00;;;12.70;99.90;;;;;;5051495;28;20854;-64
2023/08/31 06:29:45;;;;;;;2.73;2.53;;;12.80;99.90;;;;;;5051811;28;20847;-64
2023/08/31 06:32:13;;;;;;;2.60;1.50;;;12.80;99.90;;;;;;5051553;28;20462;-64
2023/08/31 06:34:39;;;;;;;1.77;1.67;;;12.90;99.90;;;;;;5051841;28;20221;-64
2023/08/31 06:37:06;;;;;;;3.00;2.35;;;12.90;99.90;;;;;;5051453;28;20460;-64
2023/08/31 06:39:33;;;;;;;2.00;1.80;;;12.90;99.90;;;;;;5051760;28;20222;-65
2023/08/31 06:42:00;;;;;;;2.00;1.80;;;13.00;99.90;;;;;;5051201;28;20256;-64
2023/08/31 06:44:28;;;;;;;2.60;2.13;;;13.00;99.90;;;;;;5051726;28;20205;-64
2023/08/31 06:46:55;;;;;;;2.45;1.98;;;13.10;99.90;;;;;;5051368;28;20478;-64
2023/08/31 06:49:23;;;;;;;2.10;1.90;;;13.20;99.90;;;;;;5051232;28;20612;-64
2023/08/31 06:51:50;;;;;;;2.77;1.80;;;13.30;99.90;;;;;;5051430;28;20455;-64
2023/08/31 06:54:17;;;;;;;2.27;2.07;;;13.40;99.90;;;;;;5051229;28;20837;-64
2023/08/31 06:56:44;;;;;;;2.00;1.80;;;13.50;99.90;;;;;;5051352;28;20544;-65
2023/08/31 06:59:10;;;;;;;2.97;2.07;;;13.60;99.90;;;;;;5050889;28;20626;-64
2023/08/31 07:01:37;;;;;;;2.40;1.90;;;13.60;99.90;;;;;;5050897;28;20976;-64
2023/08/31 07:04:05;;;;;;;2.83;2.17;;;13.80;99.90;;;;;;5051060;28;20462;-65
2023/08/31 07:06:34;;;;;;;2.77;2.10;;;13.90;99.90;;;;;;5050834;28;20531;-65
2023/08/31 07:09:01;;;;;;;2.10;1.87;;;14.00;99.90;;;;;;5050563;28;20477;-65
2023/08/31 07:11:28;;;;;;;1.93;1.80;;;14.00;99.90;;;;;;5050861;28;20456;-65
2023/08/31 07:13:57;;;;;;;2.73;2.10;;;14.20;99.90;;;;;;5050884;28;20467;-64
2023/08/31 07:16:24;;;;;;;4.10;1.73;;;14.30;99.90;;;;;;5050879;28;20456;-65
2023/08/31 07:18:50;;;;;;;2.20;1.70;;;14.40;99.90;;;;;;5050576;28;20478;-65
2023/08/31 07:21:17;;;;;;;3.60;2.00;;;14.40;99.90;;;;;;5050340;28;20467;-65
2023/08/31 07:23:45;;;;;;;2.60;2.10;;;14.50;99.90;;;;;;5050925;28;20459;-65
2023/08/31 07:26:12;;;;;;;2.80;2.37;;;14.50;99.90;;;;;;5050646;28;20834;-65
2023/08/31 07:28:38;;;;;;;2.60;1.77;;;14.60;99.90;;;;;;5050567;28;20461;-65
2023/08/31 07:31:06;;;;;;;2.40;2.00;;;14.70;99.90;;;;;;5050306;28;20467;-65
2023/08/31 07:33:34;;;;;;;2.30;1.70;;;14.80;99.90;;;;;;5050488;28;20475;-65
2023/08/31 07:36:01;;;;;;;3.13;2.17;;;14.90;99.90;;;;;;5050549;28;20536;-65
2023/08/31 07:38:28;;;;;;;2.83;1.60;;;15.00;99.90;;;;;;5050570;28;20454;-65
2023/08/31 07:40:57;;;;;;;2.13;1.90;;;15.10;99.90;;;;;;5051012;28;20458;-65
2023/08/31 07:43:25;;;;;;;4.73;2.23;;;15.20;99.90;;;;;;5034812;28;20546;-65
2023/08/31 07:45:53;;;;;;;1.67;1.57;;;15.20;99.90;;;;;;5050774;28;20465;-65
2023/08/31 07:48:20;;;;;;;3.50;1.93;;;15.30;99.90;;;;;;5050009;28;20914;-65
2023/08/31 07:50:48;;;;;;;1.90;1.70;;;15.40;99.90;;;;;;5050531;28;20471;-65
2023/08/31 07:53:17;;;;;;;2.43;1.83;;;15.40;99.90;;;;;;5049733;28;20495;-65
2023/08/31 07:55:51;;;;;;;3.43;2.10;;;15.50;99.90;;;;;;5050240;28;20589;-65
2023/08/31 07:58:20;;;;;;;3.13;1.80;;;15.60;99.90;;;;;;5049686;28;20451;-65
2023/08/31 08:00:46;;;;;;;4.23;1.93;;;15.70;99.90;;;;;;5040459;28;20488;-65
2023/08/31 08:03:13;;;;;;;2.30;1.63;;;15.70;99.90;;;;;;5026530;28;20471;-64
2023/08/31 08:05:40;;;;;;;1.93;1.47;;;15.80;99.90;;;;;;5029236;28;20456;-65
2023/08/31 08:08:07;;;;;;;3.17;2.30;;;15.90;99.90;;;;;;5047912;28;20908;-65
2023/08/31 08:10:33;;;;;;;2.60;1.70;;;16.00;99.90;;;;;;5033845;28;20858;-64
2023/08/31 08:13:00;;;;;;;2.27;1.90;;;16.10;99.90;;;;;;5046995;28;20463;-65
2023/08/31 08:15:28;;;;;;;3.93;2.10;;;16.10;99.90;;;;;;5048531;28;20965;-65
2023/08/31 08:17:57;;;;;;;3.60;2.50;;;16.20;99.90;;;;;;5048271;28;21076;-65
2023/08/31 08:20:23;;;;;;;1.97;1.67;;;16.30;99.90;;;;;;5048163;28;20843;-65
2023/08/31 08:22:52;;;;;;;2.90;2.40;;;16.50;99.90;;;;;;5048247;28;20467;-65
2023/08/31 08:25:19;;;;;;;1.60;1.50;;;16.50;99.90;;;;;;5047925;28;20460;-65
2023/08/31 08:27:45;;;;;;;2.97;1.90;;;16.60;99.90;;;;;;5048732;28;20480;-64
2023/08/31 08:30:12;;;;;;;2.23;1.63;;;16.70;99.90;;;;;;5048612;28;20479;-65
2023/08/31 08:32:40;;;;;;;1.87;1.63;;;16.80;99.90;;;;;;5047817;28;20470;-65
2023/08/31 08:35:08;;;;;;;1.97;1.77;;;16.90;99.90;;;;;;5048209;28;20455;-65
2023/08/31 08:37:35;;;;;;;2.50;1.67;;;17.10;99.90;;;;;;5048873;28;20452;-66
2023/08/31 08:40:03;;;;;;;1.50;1.40;;;17.20;99.90;;;;;;5048304;28;20859;-65
2023/08/31 08:42:31;;;;;;;3.43;2.10;;;17.30;99.90;;;;;;5047983;28;20460;-65
2023/08/31 08:44:58;;;;;;;2.00;1.80;;;17.40;99.90;;;;;;5052610;28;20456;-65
2023/08/31 08:47:26;;;;;;;1.83;1.57;;;17.60;99.90;;;;;;5051451;28;20478;-65
2023/08/31 08:49:55;;;;;;;3.03;2.47;;;17.80;99.90;;;;;;5052405;28;20484;-65
2023/08/31 08:52:22;;;;;;;2.37;1.73;;;17.80;99.90;;;;;;5051996;28;20966;-64
2023/08/31 08:54:50;;;;;;;1.90;1.70;;;17.60;99.90;;;;;;5051802;28;20462;-65
2023/08/31 08:57:17;;;;;;;4.73;1.60;;;17.40;99.90;;;;;;5052194;28;20455;-65
2023/08/31 08:59:43;;;;;;;3.17;1.80;;;17.10;99.90;;;;;;5051732;28;20491;-65
2023/08/31 09:02:12;;;;;;;5.27;2.07;;;17.00;99.90;;;;;;5050744;28;20673;-65
2023/08/31 09:04:39;;;;;;;8.77;1.97;;;17.00;99.90;;;;;;5051869;28;20951;-65
2023/08/31 09:07:07;;;;;;;4.07;1.50;;;16.90;99.90;;;;;;5041986;28;20499;-65
2023/08/31 09:09:49;;;;;;;4.33;1.63;;;16.80;99.90;;;;;;5051495;28;20994;-64
2023/08/31 09:12:15;;;;;;;1.70;1.57;;;16.70;99.90;;;;;;5050965;28;20460;-65
2023/08/31 09:14:42;;;;;;;2.47;1.80;;;16.60;99.90;;;;;;5051965;28;20456;-64
2023/08/31 09:17:09;;;;;;;1.83;1.37;;;16.60;99.90;;;;;;5051277;28;20456;-64
2023/08/31 09:19:36;;;;;;;2.00;1.60;;;16.60;99.90;;;;;;5051506;28;20484;-65
2023/08/31 09:22:02;;;;;;;4.10;1.70;;;16.70;99.90;;;;;;5051352;28;20455;-65
2023/08/31 09:24:41;;;;;;;3.67;2.03;;;16.80;99.90;;;;;;5050325;28;20455;-65
2023/08/31 09:27:10;;;;;;;3.77;1.90;;;16.80;99.90;;;;;;5051969;28;20480;-65
2023/08/31 09:29:40;;;;;;;2.67;1.90;;;16.80;99.90;;;;;;5051516;28;20490;-65
2023/08/31 09:32:07;;;;;;;2.63;1.83;;;16.80;99.90;;;;;;5050974;28;20457;-65
2023/08/31 09:34:34;;;;;;;2.80;1.70;;;16.80;99.90;;;;;;5051148;28;20517;-65
2023/08/31 09:37:05;;;;;;;1.60;1.30;;;17.00;99.90;;;;;;5051133;28;20560;-65
2023/08/31 09:39:38;;;;;;;2.03;1.80;;;17.10;99.90;;;;;;5050213;28;20487;-65
2023/08/31 09:42:05;;;;;;;2.47;1.70;;;17.10;99.90;;;;;;5050912;28;20468;-65
2023/08/31 09:44:32;;;;;;;2.10;1.60;;;17.30;99.90;;;;;;5050617;28;20943;-65
2023/08/31 09:46:59;;;;;;;3.43;1.70;;;17.60;99.90;;;;;;5034751;28;20454;-65
2023/08/31 09:49:26;;;;;;;3.53;2.00;;;17.80;99.90;;;;;;5050347;28;20531;-65
2023/08/31 09:51:53;;;;;;;2.10;1.80;;;17.80;99.90;;;;;;5050750;28;20461;-65
2023/08/31 09:54:22;;;;;;;2.90;1.73;;;17.80;99.90;;;;;;5050006;28;20462;-65
2023/08/31 09:56:51;;;;;;;2.53;1.97;;;17.90;99.90;;;;;;5028765;28;20494;-65
2023/08/31 09:59:18;;;;;;;3.37;1.77;;;18.00;99.90;;;;;;5039552;28;20472;-65
2023/08/31 10:01:46;;;;;;;2.70;1.57;;;18.20;99.90;;;;;;5049877;28;20494;-65
2023/08/31 10:04:14;;;;;;;2.07;1.73;;;18.30;99.90;;;;;;5050219;28;20515;-65
2023/08/31 10:06:41;;;;;;;2.00;1.80;;;18.50;99.90;;;;;;5050688;28;20942;-65
2023/08/31 10:09:11;;;;;;;3.67;1.60;;;18.50;99.90;;;;;;5050001;28;21027;-65
2023/08/31 10:11:39;;;;;;;2.00;1.70;;;18.60;99.90;;;;;;5050258;28;20462;-65
2023/08/31 10:14:09;;;;;;;2.03;1.67;;;18.70;99.90;;;;;;5050163;28;20466;-65
2023/08/31 10:16:37;;;;;;;2.00;1.70;;;18.90;99.90;;;;;;5049441;28;20490;-66
2023/08/31 10:19:04;;;;;;;2.33;1.73;;;18.90;99.90;;;;;;5029700;28;20484;-65
2023/08/31 10:21:33;;;;;;;2.00;1.70;;;18.90;99.90;;;;;;5027020;28;20562;-65
2023/08/31 10:24:00;;;;;;;2.10;1.60;;;19.10;99.90;;;;;;5038669;28;20464;-64
2023/08/31 10:26:29;;;;;;;4.60;1.77;;;19.00;99.90;;;;;;5020630;28;20467;-64
2023/08/31 10:28:57;;;;;;;1.90;1.27;;;18.90;99.90;;;;;;5038012;28;20488;-65
2023/08/31 10:31:28;;;;;;;3.03;2.17;;;18.80;99.90;;;;;;5047452;28;20883;-65
2023/08/31 10:33:58;;;;;;;2.27;1.70;;;18.50;99.90;;;;;;5049247;28;20461;-65
2023/08/31 10:36:37;;;;;;;3.43;1.87;;;18.20;99.90;;;;;;5049757;28;20464;-65
2023/08/31 10:39:08;;;;;;;3.43;2.00;;;18.10;99.90;;;;;;5049783;28;20487;-65
2023/08/31 10:41:35;;;;;;;2.60;1.73;;;17.90;99.90;;;;;;5049539;28;20467;-65
2023/08/31 10:44:02;;;;;;;2.53;1.67;;;17.80;99.90;;;;;;5049748;28;20462;-64
2023/08/31 10:46:32;;;;;;;5.80;2.00;;;17.70;99.90;;;;;;5049479;28;20460;-64
2023/08/31 10:49:00;;;;;;;2.97;2.03;;;17.70;99.90;;;;;;5049954;28;20576;-65
2023/08/31 10:51:29;;;;;;;3.00;1.83;;;17.70;99.90;;;;;;5048787;28;20476;-64
2023/08/31 10:54:07;;;;;;;2.13;1.77;;;17.70;99.90;;;;;;5050008;28;20536;-65
2023/08/31 10:56:34;;;;;;;2.20;1.83;;;17.80;99.90;;;;;;5049475;28;20457;-64
2023/08/31 10:59:03;;;;;;;2.07;1.87;;;17.80;99.90;;;;;;5049480;28;20474;-65
2023/08/31 11:01:59;;;;;;;1.97;1.80;;;17.80;99.90;;;;;;5049094;28;20526;-65
2023/08/31 11:04:27;;;;;;;3.20;2.00;;;17.70;99.90;;;;;;5049445;28;20922;-65
2023/08/31 11:07:14;;;;;;;2.50;2.07;;;17.70;99.90;;;;;;5048720;28;20484;-64
2023/08/31 11:09:41;;;;;;;2.77;1.53;;;17.70;99.90;;;;;;5049180;28;20479;-65
2023/08/31 11:12:09;;;;;;;2.23;1.83;;;17.60;99.90;;;;;;5049076;28;21017;-64
2023/08/31 11:14:36;;;;;;;2.10;1.47;;;17.80;99.90;;;;;;5048659;28;20462;-65
2023/08/31 11:17:05;;;;;;;1.80;1.30;;;17.90;99.90;;;;;;5049531;28;20460;-65
2023/08/31 11:19:32;;;;;;;2.83;1.80;;;17.90;99.90;;;;;;5049090;28;20474;-65
2023/08/31 11:22:00;;;;;;;2.13;1.50;;;17.90;99.90;;;;;;5048863;28;20594;-65
2023/08/31 11:24:27;;;;;;;2.57;1.50;;;18.20;99.90;;;;;;5049079;28;20969;-65
2023/08/31 11:26:55;;;;;;;6.13;2.03;;;18.60;99.90;;;;;;5049307;28;21119;-65
2023/08/31 11:29:21;;;;;;;3.07;2.07;;;18.90;99.90;;;;;;5048477;28;20858;-65
2023/08/31 11:31:48;;;;;;;1.80;1.40;;;19.10;99.90;;;;;;5048774;28;20573;-65
2023/08/31 11:34:17;;;;;;;1.97;1.63;;;19.10;99.90;;;;;;5049299;28;20839;-66
2023/08/31 11:36:45;;;;;;;2.90;2.00;;;19.10;99.90;;;;;;5048578;28;20459;-65
2023/08/31 11:39:13;;;;;;;3.07;2.40;;;19.00;99.90;;;;;;5048909;28;20575;-65
2023/08/31 11:41:41;;;;;;;7.40;2.60;;;18.90;99.90;;;;;;5048596;28;20463;-66
2023/08/31 11:44:09;;;;;;;2.03;1.60;;;18.90;99.90;;;;;;5048697;28;21085;-64
2023/08/31 11:46:36;;;;;;;4.43;2.17;;;19.20;99.90;;;;;;5048560;28;20465;-65
2023/08/31 11:49:04;;;;;;;2.00;1.53;;;19.50;99.90;;;;;;5049030;28;20491;-65
2023/08/31 11:51:33;;;;;;;2.47;1.70;;;19.60;99.90;;;;;;5047839;28;20513;-65
2023/08/31 11:54:02;;;;;;;3.00;2.00;;;19.70;99.90;;;;;;5049212;28;20466;-65
2023/08/31 11:56:29;;;;;;;4.13;1.90;;;19.80;99.90;;;;;;5048811;28;20487;-65
2023/08/31 11:58:57;;;;;;;4.27;2.10;;;19.80;99.90;;;;;;5048608;28;20476;-65
2023/08/31 12:01:24;;;;;;;4.23;1.80;;;19.80;99.90;;;;;;5048581;28;20459;-65
2023/08/31 12:03:52;;;;;;;1.90;1.70;;;19.90;99.90;;;;;;5048685;28;20896;-65
2023/08/31 12:06:19;;;;;;;2.67;1.70;;;19.80;99.90;;;;;;5048685;28;20455;-65
2023/08/31 12:08:48;;;;;;;2.90;1.83;;;19.60;99.90;;;;;;5048166;28;20952;-64
2023/08/31 12:11:15;;;;;;;2.63;1.80;;;19.50;99.90;;;;;;5048762;28;20840;-64
2023/08/31 12:13:41;;;;;;;2.13;1.50;;;19.60;99.90;;;;;;5048011;28;21161;-66
2023/08/31 12:16:13;;;;;;;4.60;1.87;;;19.60;99.90;;;;;;5027339;28;20471;-65
2023/08/31 12:18:40;;;;;;;1.70;1.13;;;19.50;99.90;;;;;;5050844;28;20934;-65
2023/08/31 12:21:07;;;;;;;3.53;1.67;;;19.40;99.90;;;;;;5052511;28;20469;-65
2023/08/31 12:23:34;;;;;;;3.70;1.90;;;19.20;99.90;;;;;;5052003;28;20467;-65
2023/08/31 12:26:02;;;;;;;3.17;2.03;;;19.00;99.90;;;;;;5052895;28;20455;-64
2023/08/31 12:28:29;;;;;;;4.10;1.80;;;19.00;99.90;;;;;;5048483;28;20597;-64
2023/08/31 12:30:57;;;;;;;2.90;1.67;;;18.90;99.90;;;;;;5033036;28;20815;-64
2023/08/31 12:33:24;;;;;;;2.13;1.77;;;18.80;99.90;;;;;;5029129;28;20471;-65
2023/08/31 12:35:51;;;;;;;2.93;1.53;;;18.70;99.90;;;;;;5026592;28;20470;-64
2023/08/31 12:38:21;;;;;;;2.30;1.63;;;18.70;99.90;;;;;;5073245;22;20455;-94
2023/08/31 12:40:48;;;;;;;2.73;1.83;;;18.80;99.90;;;;;;5099972;28;20476;-95
2023/08/31 12:43:17;;;;;;;4.20;1.80;;;18.80;99.90;;;;;;5094893;28;20462;-95
2023/08/31 12:45:43;;;;;;;2.60;1.83;;;18.80;99.90;;;;;;5086332;28;20469;-93
2023/08/31 12:48:10;;;;;;;1.73;1.50;;;18.80;99.90;;;;;;5086506;28;20480;-93
2023/08/31 12:50:37;;;;;;;2.70;1.63;;;18.80;99.90;;;;;;5086206;28;20458;-93